EST,Max TemperatureF,Mean TemperatureF,Min TemperatureF,Max Dew PointF,MeanDew PointF,Min DewpointF,Max Humidity, Mean Humidity, Min Humidity, Max Sea Level PressureIn, Mean Sea Level PressureIn, Min Sea Level PressureIn, Max VisibilityMiles, Mean VisibilityMiles, Min VisibilityMiles, Max Wind SpeedMPH, Mean Wind SpeedMPH, Max Gust SpeedMPH,PrecipitationIn, CloudCover, Events, WindDirDegrees
2013-11-1,55,46,37,54,47,33,100,92,76,29.64,29.10,28.69,9,6,1,28,16,39,0.47,8,Rain,274
2013-11-2,41,34,27,36,29,13,93,77,41,30.17,29.84,29.66,9,8,3,18,13,25,0.00,8,Rain-Snow,41
2013-11-3,39,27,15,23,19,14,89,64,32,30.51,30.38,30.19,9,9,9,12,8,,0.00,2,,108
2013-11-4,42,32,21,34,27,17,75,64,39,30.61,30.46,30.30,9,9,9,23,14,32,0.00,3,,149
2013-11-5,50,40,31,46,41,25,93,81,66,30.34,30.24,30.14,9,8,5,20,13,28,0.00,7,,193
2013-11-6,50,44,37,52,45,34,100,93,81,30.14,29.75,29.52,9,6,2,24,17,38,0.35,8,Rain,224
2013-11-7,39,34,29,36,32,25,100,89,52,30.00,29.96,29.79,9,7,1,22,11,29,0.00,8,Rain-Snow,296
2013-11-8,39,33,27,32,24,21,87,64,50,30.18,30.11,29.94,9,9,9,17,10,26,0.00,6,,298
2013-11-9,42,34,26,43,37,21,100,89,56,30.15,29.79,29.63,9,8,2,25,13,33,0.16,8,Rain,196
2013-11-10,37,34,30,37,33,24,96,79,61,30.13,29.81,29.61,9,9,5,25,19,34,0.00,8,Rain,292
2013-11-11,34,26,19,36,26,12,95,74,48,30.27,29.96,29.83,9,9,5,30,17,44,0.04,7,Rain-Snow,294
2013-11-12,28,20,13,23,14,5,86,65,37,30.47,30.40,30.24,9,9,3,18,14,25,0.00,5,Snow,311
2013-11-13,41,26,11,28,23,8,81,62,45,30.40,30.15,29.83,9,9,9,26,16,37,0.00,5,Snow,244
2013-11-14,42,38,34,39,33,27,87,74,57,29.88,29.84,29.77,9,9,9,24,17,38,0.12,4,Rain,236
2013-11-15,44,40,35,41,37,35,100,83,71,29.97,29.90,29.82,9,9,5,15,10,,0.00,5,,198
2013-11-16,50,41,32,46,41,33,98,87,59,30.05,29.91,29.72,9,9,9,25,13,40,0.00,5,Rain,174
2013-11-17,54,50,46,54,50,40,100,94,63,29.75,29.26,28.90,9,6,2,36,24,48,0.35,8,Rain-Thunderstorm,179
2013-11-18,37,32,26,48,31,17,93,78,56,29.96,29.39,28.87,9,8,5,36,28,54,0.04,8,Rain-Snow,301
2013-11-19,25,22,19,21,17,11,86,69,47,30.45,30.27,29.96,9,9,9,20,12,28,0.00,4,Snow,333
2013-11-20,35,25,15,34,27,12,93,78,55,30.54,30.42,30.31,9,9,9,20,10,28,0.00,4,,149
2013-11-21,41,34,27,39,36,17,100,89,49,30.38,30.23,30.17,9,8,2,17,9,24,0.04,8,Rain,177
2013-11-22,33,25,17,39,32,14,100,93,74,30.30,30.17,30.10,9,5,1,20,6,25,0.08,7,Rain-Snow,319
2013-11-23,14,9,4,27,13,-3,100,73,62,30.43,30.22,30.09,9,7,0,22,13,34,0.00,7,Snow,321
2013-11-24,23,11,-1,18,7,-7,92,74,38,30.53,30.42,30.25,9,8,2,23,10,29,0.00,6,Snow,331
2013-11-25,35,18,2,30,25,0,93,80,64,30.28,29.91,29.82,9,8,4,32,21,41,0.01,8,Rain-Snow,231
2013-11-26,34,28,23,32,30,16,100,91,74,29.98,29.91,29.84,9,6,1,22,13,30,0.12,8,Rain-Snow,270
2013-11-27,19,16,12,18,11,7,86,71,58,30.14,29.98,29.88,9,9,9,22,15,32,0.00,8,Snow,358
2013-11-28,17,10,3,9,6,0,79,67,46,30.47,30.31,30.08,9,9,9,14,8,20,0.00,5,,23
2013-11-29,30,9,-8,23,15,-8,93,80,39,30.74,30.62,30.49,9,7,1,16,7,17,0.00,6,Snow,119
2013-11-30,35,21,7,32,30,10,100,89,64,30.62,30.15,30.05,9,5,1,25,13,34,0.16,8,Rain-Snow,219